map of CPV home
CPV - Airport
Location
City:  Campina Grande, Paraíba, Brazil
Name:Presidente João Suassuna Airport
ICAO:SBKG
IATA:CPV

Details
Type:Airport (Aerodrome, Airfield)
Latitude:7°16'12"S (-7.269916)
Longitude:35°53'47"W (-35.896363)
Datum:WGS 1984
Elevation:1646 ft (502 m)
Variation:21.90°W (WMM2015 magnetic declination)
0.03° annual change
Runways:1
Longest:5249 × 138 ft (1600 × 42 m), paved

Time
Time Zone:UTC-3
Local Time:

Weather
METAR:SBKG 191300Z 09012KT 9999 SCT030 28/16 Q1015
TAF:SBKG 190900Z 1912/1924 09012KT 9999 BKN025 TX31/1917Z TN23/1923Z
BECMG 1915/1916 SCT035
RMK PEA

Related Locations
Nearby:
Farthest:ULI: 12093 mi / 19463 km
Falalop Island [Ulithi Civil Airfield], Ulithi Atoll, YAP, FM

Find:

   beyond  
but within

Other Information
Maps:
NOTAMs:
Links:
Sources:

  
  • flag of Brazil
  • flag of Paraíba
  

Sectional Chart

Flight Planning
at skyvector.com

Satellite Image

Google Maps Satellite view

 

Copyright © 2004-2018 Karl L. Swartz. All rights reserved.
The Great Circle Mapper name and logo are trademarks of the Great Circle Mapper.
All other trademarks mentioned herein belong to their respective owners.
Please see credits for attibutions and further copyright information.

  Follow gcmap on Facebook Follow gcmap on Twitter Follow gcmap on Google+ GCmap on LinkedIn

hCard Microformat

Geo Microformat